sensor_id;sensor_type;location;lat;lon;timestamp;pressure;altitude;pressure_sealevel;temperature
11926;BMP180;6022;48.768;18.608;2023-02-05T00:00:32;99771.22;;;-1.89
11926;BMP180;6022;48.768;18.608;2023-02-05T00:02:59;99777.00;;;-1.88
11926;BMP180;6022;48.768;18.608;2023-02-05T00:05:26;99778.66;;;-1.90
11926;BMP180;6022;48.768;18.608;2023-02-05T00:07:54;99786.94;;;-1.90
11926;BMP180;6022;48.768;18.608;2023-02-05T00:10:21;99798.56;;;-1.89
11926;BMP180;6022;48.768;18.608;2023-02-05T00:12:48;99811.84;;;-1.83
11926;BMP180;6022;48.768;18.608;2023-02-05T00:15:15;99820.97;;;-1.80
11926;BMP180;6022;48.768;18.608;2023-02-05T00:17:43;99835.09;;;-1.79
11926;BMP180;6022;48.768;18.608;2023-02-05T00:20:10;99833.44;;;-1.79
11926;BMP180;6022;48.768;18.608;2023-02-05T00:22:38;99833.47;;;-1.76
11926;BMP180;6022;48.768;18.608;2023-02-05T00:25:06;99838.41;;;-1.79
11926;BMP180;6022;48.768;18.608;2023-02-05T00:27:36;99836.72;;;-1.83
11926;BMP180;6022;48.768;18.608;2023-02-05T00:30:13;99844.19;;;-1.81
11926;BMP180;6022;48.768;18.608;2023-02-05T00:32:55;99839.19;;;-1.84
11926;BMP180;6022;48.768;18.608;2023-02-05T00:35:22;99847.53;;;-1.79
11926;BMP180;6022;48.768;18.608;2023-02-05T00:37:55;99842.56;;;-1.79
11926;BMP180;6022;48.768;18.608;2023-02-05T00:40:39;99840.84;;;-1.85
11926;BMP180;6022;48.768;18.608;2023-02-05T00:43:15;99847.47;;;-1.88
11926;BMP180;6022;48.768;18.608;2023-02-05T00:45:42;99827.50;;;-1.95
11926;BMP180;6022;48.768;18.608;2023-02-05T00:48:12;99823.28;;;-2.02
11926;BMP180;6022;48.768;18.608;2023-02-05T00:50:46;99825.75;;;-2.07
11926;BMP180;6022;48.768;18.608;2023-02-05T00:53:16;99821.59;;;-2.06
11926;BMP180;6022;48.768;18.608;2023-02-05T00:55:52;99824.88;;;-2.12
11926;BMP180;6022;48.768;18.608;2023-02-05T00:58:22;99830.69;;;-2.13
11926;BMP180;6022;48.768;18.608;2023-02-05T01:00:52;99824.88;;;-2.13
11926;BMP180;6022;48.768;18.608;2023-02-05T01:03:35;99824.81;;;-2.19
11926;BMP180;6022;48.768;18.608;2023-02-05T01:06:02;99838.88;;;-2.24
11926;BMP180;6022;48.768;18.608;2023-02-05T01:08:30;99848.75;;;-2.28
11926;BMP180;6022;48.768;18.608;2023-02-05T01:11:15;99849.56;;;-2.29
11926;BMP180;6022;48.768;18.608;2023-02-05T01:13:52;99841.22;;;-2.36
11926;BMP180;6022;48.768;18.608;2023-02-05T01:16:22;99837.91;;;-2.35
11926;BMP180;6022;48.768;18.608;2023-02-05T01:18:52;99848.69;;;-2.37
11926;BMP180;6022;48.768;18.608;2023-02-05T01:21:23;99845.34;;;-2.38
11926;BMP180;6022;48.768;18.608;2023-02-05T01:23:51;99847.84;;;-2.36
11926;BMP180;6022;48.768;18.608;2023-02-05T01:26:18;99848.63;;;-2.43
11926;BMP180;6022;48.768;18.608;2023-02-05T01:28:50;99848.56;;;-2.46
11926;BMP180;6022;48.768;18.608;2023-02-05T01:31:21;99840.28;;;-2.48
11926;BMP180;6022;48.768;18.608;2023-02-05T01:33:56;99846.09;;;-2.46
11926;BMP180;6022;48.768;18.608;2023-02-05T01:36:37;99847.72;;;-2.50
11926;BMP180;6022;48.768;18.608;2023-02-05T01:39:04;99855.19;;;-2.48
11926;BMP180;6022;48.768;18.608;2023-02-05T01:41:34;99855.13;;;-2.54
11926;BMP180;6022;48.768;18.608;2023-02-05T01:44:15;99854.19;;;-2.62
11926;BMP180;6022;48.768;18.608;2023-02-05T01:46:53;99868.19;;;-2.70
11926;BMP180;6022;48.768;18.608;2023-02-05T01:49:27;99862.38;;;-2.70
11926;BMP180;6022;48.768;18.608;2023-02-05T01:52:13;99863.28;;;-2.64
11926;BMP180;6022;48.768;18.608;2023-02-05T01:54:46;99874.00;;;-2.66
11926;BMP180;6022;48.768;18.608;2023-02-05T01:57:22;99859.03;;;-2.74
11926;BMP180;6022;48.768;18.608;2023-02-05T01:59:57;99866.53;;;-2.71
11926;BMP180;6022;48.768;18.608;2023-02-05T02:02:25;99872.31;;;-2.70
11926;BMP180;6022;48.768;18.608;2023-02-05T02:05:06;99864.00;;;-2.74
11926;BMP180;6022;48.768;18.608;2023-02-05T02:07:36;99861.59;;;-2.69
11926;BMP180;6022;48.768;18.608;2023-02-05T02:10:08;99853.31;;;-2.67
11926;BMP180;6022;48.768;18.608;2023-02-05T02:12:40;99856.59;;;-2.68
11926;BMP180;6022;48.768;18.608;2023-02-05T02:15:20;99871.59;;;-2.63
11926;BMP180;6022;48.768;18.608;2023-02-05T02:18:04;99858.28;;;-2.67
11926;BMP180;6022;48.768;18.608;2023-02-05T02:21:25;99861.59;;;-2.69
11926;BMP180;6022;48.768;18.608;2023-02-05T02:24:38;99864.03;;;-2.71
11926;BMP180;6022;48.768;18.608;2023-02-05T02:27:35;99864.81;;;-2.73
11926;BMP180;6022;48.768;18.608;2023-02-05T02:38:32;99868.84;;;-2.83
11926;BMP180;6022;48.768;18.608;2023-02-05T02:41:26;99872.94;;;-2.88
11926;BMP180;6022;48.768;18.608;2023-02-05T02:44:09;99874.66;;;-2.82
11926;BMP180;6022;48.768;18.608;2023-02-05T02:49:33;99886.38;;;-2.71
11926;BMP180;6022;48.768;18.608;2023-02-05T02:52:01;99887.22;;;-2.70
11926;BMP180;6022;48.768;18.608;2023-02-05T02:54:34;99892.13;;;-2.73
11926;BMP180;6022;48.768;18.608;2023-02-05T02:57:06;99888.72;;;-2.81
11926;BMP180;6022;48.768;18.608;2023-02-05T02:59:37;99891.25;;;-2.80
11926;BMP180;6022;48.768;18.608;2023-02-05T03:02:10;99892.72;;;-2.94
11926;BMP180;6022;48.768;18.608;2023-02-05T03:04:42;99891.84;;;-2.97
11926;BMP180;6022;48.768;18.608;2023-02-05T03:07:34;99886.81;;;-3.03
11926;BMP180;6022;48.768;18.608;2023-02-05T03:10:19;99891.78;;;-3.03
11926;BMP180;6022;48.768;18.608;2023-02-05T03:12:48;99889.19;;;-3.10
11926;BMP180;6022;48.768;18.608;2023-02-05T03:15:16;99899.97;;;-3.08
11926;BMP180;6022;48.768;18.608;2023-02-05T03:17:43;99900.75;;;-3.12
11926;BMP180;6022;48.768;18.608;2023-02-05T03:20:38;99903.19;;;-3.15
11926;BMP180;6022;48.768;18.608;2023-02-05T03:23:07;99899.03;;;-3.18
11926;BMP180;6022;48.768;18.608;2023-02-05T03:25:34;99903.97;;;-3.19
11926;BMP180;6022;48.768;18.608;2023-02-05T03:28:02;99898.94;;;-3.22
11926;BMP180;6022;48.768;18.608;2023-02-05T03:31:08;99897.22;;;-3.26
11926;BMP180;6022;48.768;18.608;2023-02-05T03:40:25;99908.09;;;-3.20
11926;BMP180;6022;48.768;18.608;2023-02-05T03:43:55;99907.22;;;-3.23
11926;BMP180;6022;48.768;18.608;2023-02-05T03:52:16;99902.25;;;-3.23
11926;BMP180;6022;48.768;18.608;2023-02-05T03:58:10;99898.03;;;-3.29
11926;BMP180;6022;48.768;18.608;2023-02-05T04:00:40;99893.06;;;-3.29
11926;BMP180;6022;48.768;18.608;2023-02-05T04:03:10;99898.84;;;-3.31
11926;BMP180;6022;48.768;18.608;2023-02-05T04:05:37;99891.34;;;-3.34
11926;BMP180;6022;48.768;18.608;2023-02-05T04:08:05;99893.81;;;-3.34
11926;BMP180;6022;48.768;18.608;2023-02-05T04:10:32;99888.78;;;-3.37
11926;BMP180;6022;48.768;18.608;2023-02-05T04:13:00;99891.28;;;-3.38
11926;BMP180;6022;48.768;18.608;2023-02-05T04:15:27;99899.50;;;-3.42
11926;BMP180;6022;48.768;18.608;2023-02-05T04:17:54;99912.19;;;-3.76
11926;BMP180;6022;48.768;18.608;2023-02-05T04:20:23;99919.00;;;-4.10
11926;BMP180;6022;48.768;18.608;2023-02-05T04:22:51;99923.88;;;-4.14
11926;BMP180;6022;48.768;18.608;2023-02-05T04:25:18;99927.91;;;-4.19
11926;BMP180;6022;48.768;18.608;2023-02-05T04:27:46;99942.81;;;-4.18
11926;BMP180;6022;48.768;18.608;2023-02-05T04:30:14;99933.66;;;-4.22
11926;BMP180;6022;48.768;18.608;2023-02-05T04:32:41;99951.00;;;-4.22
11926;BMP180;6022;48.768;18.608;2023-02-05T04:35:09;99942.06;;;-4.14
11926;BMP180;6022;48.768;18.608;2023-02-05T04:37:36;99938.91;;;-4.07
11926;BMP180;6022;48.768;18.608;2023-02-05T04:40:04;99943.84;;;-4.07
11926;BMP180;6022;48.768;18.608;2023-02-05T04:42:32;99935.53;;;-4.11
11926;BMP180;6022;48.768;18.608;2023-02-05T04:44:59;99935.44;;;-4.15
11926;BMP180;6022;48.768;18.608;2023-02-05T04:47:26;99940.50;;;-4.09
11926;BMP180;6022;48.768;18.608;2023-02-05T04:49:53;99941.09;;;-4.22
11926;BMP180;6022;48.768;18.608;2023-02-05T04:52:21;99942.78;;;-4.19
11926;BMP180;6022;48.768;18.608;2023-02-05T04:54:48;99947.75;;;-4.21
11926;BMP180;6022;48.768;18.608;2023-02-05T04:57:15;99945.22;;;-4.22
11926;BMP180;6022;48.768;18.608;2023-02-05T04:59:43;99958.47;;;-4.20
11926;BMP180;6022;48.768;18.608;2023-02-05T05:02:10;99957.47;;;-4.30
11926;BMP180;6022;48.768;18.608;2023-02-05T05:04:37;99959.56;;;-4.48
11926;BMP180;6022;48.768;18.608;2023-02-05T05:07:07;99956.00;;;-4.61
11926;BMP180;6022;48.768;18.608;2023-02-05T05:09:36;99955.81;;;-4.70
11926;BMP180;6022;48.768;18.608;2023-02-05T05:12:04;99957.53;;;-4.68
11926;BMP180;6022;48.768;18.608;2023-02-05T05:14:31;99959.38;;;-4.58
11926;BMP180;6022;48.768;18.608;2023-02-05T05:16:58;99967.84;;;-4.46
11926;BMP180;6022;48.768;18.608;2023-02-05T05:19:25;99964.78;;;-4.36
11926;BMP180;6022;48.768;18.608;2023-02-05T05:21:53;99973.22;;;-4.25
11926;BMP180;6022;48.768;18.608;2023-02-05T05:24:20;99981.59;;;-4.20
11926;BMP180;6022;48.768;18.608;2023-02-05T05:26:47;99984.25;;;-4.11
11926;BMP180;6022;48.768;18.608;2023-02-05T05:29:15;99995.19;;;-4.00
11926;BMP180;6022;48.768;18.608;2023-02-05T05:31:42;99996.66;;;-4.10
11926;BMP180;6022;48.768;18.608;2023-02-05T05:34:10;99991.00;;;-4.04
11926;BMP180;6022;48.768;18.608;2023-02-05T05:36:37;100004.31;;;-3.98
11926;BMP180;6022;48.768;18.608;2023-02-05T05:39:09;100005.22;;;-3.94
11926;BMP180;6022;48.768;18.608;2023-02-05T05:41:55;100013.44;;;-3.97
11926;BMP180;6022;48.768;18.608;2023-02-05T05:44:41;100018.41;;;-3.95
11926;BMP180;6022;48.768;18.608;2023-02-05T05:47:09;100019.72;;;-4.12
11926;BMP180;6022;48.768;18.608;2023-02-05T05:49:36;100027.09;;;-4.16
11926;BMP180;6022;48.768;18.608;2023-02-05T05:52:04;100023.75;;;-4.18
11926;BMP180;6022;48.768;18.608;2023-02-05T05:54:31;100030.50;;;-4.12
11926;BMP180;6022;48.768;18.608;2023-02-05T05:56:58;100032.94;;;-4.13
11926;BMP180;6022;48.768;18.608;2023-02-05T05:59:26;100032.78;;;-4.20
11926;BMP180;6022;48.768;18.608;2023-02-05T06:01:53;100036.16;;;-4.17
11926;BMP180;6022;48.768;18.608;2023-02-05T06:04:21;100033.66;;;-4.18
11926;BMP180;6022;48.768;18.608;2023-02-05T06:06:49;100032.75;;;-4.22
11926;BMP180;6022;48.768;18.608;2023-02-05T06:09:16;100045.84;;;-4.27
11926;BMP180;6022;48.768;18.608;2023-02-05T06:11:44;100041.00;;;-4.23
11926;BMP180;6022;48.768;18.608;2023-02-05T06:14:11;100046.81;;;-4.19
11926;BMP180;6022;48.768;18.608;2023-02-05T06:16:40;100050.25;;;-4.14
11926;BMP180;6022;48.768;18.608;2023-02-05T06:19:07;100056.13;;;-4.08
11926;BMP180;6022;48.768;18.608;2023-02-05T06:21:34;100052.78;;;-4.12
11926;BMP180;6022;48.768;18.608;2023-02-05T06:24:02;100059.47;;;-4.06
11926;BMP180;6022;48.768;18.608;2023-02-05T06:26:29;100068.59;;;-4.05
11926;BMP180;6022;48.768;18.608;2023-02-05T06:28:57;100067.06;;;-4.00
11926;BMP180;6022;48.768;18.608;2023-02-05T06:31:32;100066.31;;;-3.96
11926;BMP180;6022;48.768;18.608;2023-02-05T06:34:00;100071.00;;;-4.08
11926;BMP180;6022;48.768;18.608;2023-02-05T06:36:27;100075.91;;;-4.11
11926;BMP180;6022;48.768;18.608;2023-02-05T06:38:55;100073.56;;;-4.05
11926;BMP180;6022;48.768;18.608;2023-02-05T06:41:22;100081.97;;;-3.97
11926;BMP180;6022;48.768;18.608;2023-02-05T06:43:50;100079.56;;;-3.94
11926;BMP180;6022;48.768;18.608;2023-02-05T06:46:17;100087.06;;;-3.90
11926;BMP180;6022;48.768;18.608;2023-02-05T06:48:45;100085.31;;;-3.95
11926;BMP180;6022;48.768;18.608;2023-02-05T06:51:12;100092.94;;;-3.86
11926;BMP180;6022;48.768;18.608;2023-02-05T06:53:40;100088.94;;;-3.78
11926;BMP180;6022;48.768;18.608;2023-02-05T06:56:07;100088.31;;;-3.70
11926;BMP180;6022;48.768;18.608;2023-02-05T06:58:35;100082.59;;;-3.66
11926;BMP180;6022;48.768;18.608;2023-02-05T07:01:03;100091.75;;;-3.62
11926;BMP180;6022;48.768;18.608;2023-02-05T07:03:30;100086.81;;;-3.61
11926;BMP180;6022;48.768;18.608;2023-02-05T07:06:05;100081.09;;;-3.58
11926;BMP180;6022;48.768;18.608;2023-02-05T07:08:33;100091.97;;;-3.52
11926;BMP180;6022;48.768;18.608;2023-02-05T07:11:01;100098.59;;;-3.51
11926;BMP180;6022;48.768;18.608;2023-02-05T07:13:29;100101.88;;;-3.52
11926;BMP180;6022;48.768;18.608;2023-02-05T07:15:56;100103.63;;;-3.46
11926;BMP180;6022;48.768;18.608;2023-02-05T07:18:32;100102.19;;;-3.34
11926;BMP180;6022;48.768;18.608;2023-02-05T07:21:07;100095.78;;;-3.23
11926;BMP180;6022;48.768;18.608;2023-02-05T07:23:36;100099.94;;;-3.21
11926;BMP180;6022;48.768;18.608;2023-02-05T07:26:14;100086.00;;;-3.13
11926;BMP180;6022;48.768;18.608;2023-02-05T07:28:42;100090.28;;;-3.06
11926;BMP180;6022;48.768;18.608;2023-02-05T07:31:14;100082.97;;;-2.99
11926;BMP180;6022;48.768;18.608;2023-02-05T07:33:44;100080.56;;;-2.93
11926;BMP180;6022;48.768;18.608;2023-02-05T07:36:16;100086.59;;;-2.79
11926;BMP180;6022;48.768;18.608;2023-02-05T07:38:45;100096.00;;;-2.60
11926;BMP180;6022;48.768;18.608;2023-02-05T07:41:15;100096.19;;;-2.44
11926;BMP180;6022;48.768;18.608;2023-02-05T07:43:43;100093.91;;;-2.30
11926;BMP180;6022;48.768;18.608;2023-02-05T07:46:13;100095.66;;;-2.24
11926;BMP180;6022;48.768;18.608;2023-02-05T07:48:42;100097.69;;;-1.96
11926;BMP180;6022;48.768;18.608;2023-02-05T07:51:22;100103.03;;;-1.63
11926;BMP180;6022;48.768;18.608;2023-02-05T07:53:51;100104.88;;;-1.48
11926;BMP180;6022;48.768;18.608;2023-02-05T07:56:19;100106.94;;;-1.08
11926;BMP180;6022;48.768;18.608;2023-02-05T07:58:47;100101.97;;;-1.05
11926;BMP180;6022;48.768;18.608;2023-02-05T08:01:15;100108.28;;;-1.40
11926;BMP180;6022;48.768;18.608;2023-02-05T08:03:43;100123.00;;;-1.60
11926;BMP180;6022;48.768;18.608;2023-02-05T08:06:15;100115.59;;;-1.53
11926;BMP180;6022;48.768;18.608;2023-02-05T08:08:52;100133.28;;;-1.31
11926;BMP180;6022;48.768;18.608;2023-02-05T08:11:22;100119.28;;;-1.18
11926;BMP180;6022;48.768;18.608;2023-02-05T08:13:52;100123.38;;;-1.22
11926;BMP180;6022;48.768;18.608;2023-02-05T08:16:20;100116.09;;;-1.04
11926;BMP180;6022;48.768;18.608;2023-02-05T08:18:51;100114.69;;;-0.74
11926;BMP180;6022;48.768;18.608;2023-02-05T08:21:18;100112.09;;;-0.87
11926;BMP180;6022;48.768;18.608;2023-02-05T08:23:48;100112.31;;;-0.61
11926;BMP180;6022;48.768;18.608;2023-02-05T08:26:16;100106.81;;;-0.06
11926;BMP180;6022;48.768;18.608;2023-02-05T08:28:47;100112.88;;;0.46
11926;BMP180;6022;48.768;18.608;2023-02-05T08:31:24;100104.63;;;0.79
11926;BMP180;6022;48.768;18.608;2023-02-05T08:33:54;100107.91;;;0.56
11926;BMP180;6022;48.768;18.608;2023-02-05T08:36:23;100103.00;;;1.20
11926;BMP180;6022;48.768;18.608;2023-02-05T08:38:50;100098.78;;;1.62
11926;BMP180;6022;48.768;18.608;2023-02-05T08:41:21;100097.09;;;1.62
11926;BMP180;6022;48.768;18.608;2023-02-05T08:43:59;100102.16;;;1.27
11926;BMP180;6022;48.768;18.608;2023-02-05T08:46:27;100094.69;;;1.18
11926;BMP180;6022;48.768;18.608;2023-02-05T08:49:14;100099.66;;;1.53
11926;BMP180;6022;48.768;18.608;2023-02-05T08:51:48;100086.19;;;1.87
11926;BMP180;6022;48.768;18.608;2023-02-05T08:55:00;100089.44;;;2.20
11926;BMP180;6022;48.768;18.608;2023-02-05T08:57:29;100080.41;;;1.79
11926;BMP180;6022;48.768;18.608;2023-02-05T08:59:57;100080.31;;;2.06
11926;BMP180;6022;48.768;18.608;2023-02-05T09:02:27;100079.34;;;2.33
11926;BMP180;6022;48.768;18.608;2023-02-05T09:04:58;100086.78;;;2.48
11926;BMP180;6022;48.768;18.608;2023-02-05T09:07:37;100087.53;;;2.68
11926;BMP180;6022;48.768;18.608;2023-02-05T09:10:08;100090.94;;;2.55
11926;BMP180;6022;48.768;18.608;2023-02-05T09:12:37;100078.13;;;2.98
11926;BMP180;6022;48.768;18.608;2023-02-05T09:15:06;100085.59;;;3.05
11926;BMP180;6022;48.768;18.608;2023-02-05T09:17:37;100097.31;;;2.99
11926;BMP180;6022;48.768;18.608;2023-02-05T09:20:18;100090.81;;;2.76
11926;BMP180;6022;48.768;18.608;2023-02-05T09:22:47;100082.00;;;1.96
11926;BMP180;6022;48.768;18.608;2023-02-05T09:25:17;100086.94;;;2.20
11926;BMP180;6022;48.768;18.608;2023-02-05T09:27:44;100081.78;;;2.47
11926;BMP180;6022;48.768;18.608;2023-02-05T09:30:13;100082.59;;;2.50
11926;BMP180;6022;48.768;18.608;2023-02-05T09:32:40;100077.72;;;2.29
11926;BMP180;6022;48.768;18.608;2023-02-05T09:35:08;100082.53;;;2.68
11926;BMP180;6022;48.768;18.608;2023-02-05T09:37:36;100075.72;;;2.85
11926;BMP180;6022;48.768;18.608;2023-02-05T09:40:06;100088.97;;;3.01
11926;BMP180;6022;48.768;18.608;2023-02-05T09:43:19;100077.16;;;3.12
11926;BMP180;6022;48.768;18.608;2023-02-05T09:46:02;100077.84;;;3.32
11926;BMP180;6022;48.768;18.608;2023-02-05T09:52:19;100077.56;;;3.63
11926;BMP180;6022;48.768;18.608;2023-02-05T09:55:43;100076.59;;;3.75
11926;BMP180;6022;48.768;18.608;2023-02-05T09:58:42;100081.03;;;3.50
11926;BMP180;6022;48.768;18.608;2023-02-05T10:01:33;100083.59;;;3.43
11926;BMP180;6022;48.768;18.608;2023-02-05T10:04:13;100066.66;;;3.66
11926;BMP180;6022;48.768;18.608;2023-02-05T10:21:50;100068.13;;;3.81
11926;BMP180;6022;48.768;18.608;2023-02-05T10:38:00;100062.47;;;3.66
11926;BMP180;6022;48.768;18.608;2023-02-05T10:44:29;100054.63;;;3.93
11926;BMP180;6022;48.768;18.608;2023-02-05T10:54:49;100045.13;;;3.44
11926;BMP180;6022;48.768;18.608;2023-02-05T11:22:04;100022.41;;;3.57
11926;BMP180;6022;48.768;18.608;2023-02-05T11:24:43;100010.66;;;3.59
11926;BMP180;6022;48.768;18.608;2023-02-05T11:32:00;100007.72;;;3.96
11926;BMP180;6022;48.768;18.608;2023-02-05T11:34:29;99999.28;;;4.03
11926;BMP180;6022;48.768;18.608;2023-02-05T11:37:09;99994.94;;;4.15
11926;BMP180;6022;48.768;18.608;2023-02-05T11:39:40;99993.75;;;4.39
11926;BMP180;6022;48.768;18.608;2023-02-05T11:42:24;99986.41;;;4.27
11926;BMP180;6022;48.768;18.608;2023-02-05T11:44:58;99989.38;;;4.51
11926;BMP180;6022;48.768;18.608;2023-02-05T11:47:34;99985.13;;;4.54
11926;BMP180;6022;48.768;18.608;2023-02-05T11:50:20;99982.91;;;4.35
11926;BMP180;6022;48.768;18.608;2023-02-05T11:52:50;99980.16;;;4.51
11926;BMP180;6022;48.768;18.608;2023-02-05T11:55:32;99984.28;;;5.06
11926;BMP180;6022;48.768;18.608;2023-02-05T11:58:21;99984.53;;;5.39
11926;BMP180;6022;48.768;18.608;2023-02-05T12:01:19;99969.09;;;5.11
11926;BMP180;6022;48.768;18.608;2023-02-05T12:06:59;99971.84;;;4.97
11926;BMP180;6022;48.768;18.608;2023-02-05T12:09:27;99975.47;;;5.29
11926;BMP180;6022;48.768;18.608;2023-02-05T12:15:32;99962.06;;;5.30
11926;BMP180;6022;48.768;18.608;2023-02-05T12:20:36;99958.84;;;4.21
11926;BMP180;6022;48.768;18.608;2023-02-05T12:23:54;99961.53;;;4.64
11926;BMP180;6022;48.768;18.608;2023-02-05T12:26:28;99965.53;;;4.76
11926;BMP180;6022;48.768;18.608;2023-02-05T12:44:14;99951.38;;;4.15
11926;BMP180;6022;48.768;18.608;2023-02-05T13:01:57;99957.75;;;4.38
11926;BMP180;6022;48.768;18.608;2023-02-05T13:05:21;99966.41;;;4.19
11926;BMP180;6022;48.768;18.608;2023-02-05T13:08:02;99951.75;;;3.88
11926;BMP180;6022;48.768;18.608;2023-02-05T13:10:56;99948.06;;;4.14
11926;BMP180;6022;48.768;18.608;2023-02-05T13:13:33;99942.69;;;3.80
11926;BMP180;6022;48.768;18.608;2023-02-05T13:16:14;99934.97;;;3.92
11926;BMP180;6022;48.768;18.608;2023-02-05T13:18:59;99943.50;;;4.39
11926;BMP180;6022;48.768;18.608;2023-02-05T13:21:29;99942.00;;;4.80
11926;BMP180;6022;48.768;18.608;2023-02-05T13:24:43;99953.25;;;4.56
11926;BMP180;6022;48.768;18.608;2023-02-05T13:27:55;99955.78;;;4.01
11926;BMP180;6022;48.768;18.608;2023-02-05T13:30:50;99963.09;;;4.17
11926;BMP180;6022;48.768;18.608;2023-02-05T13:33:20;99971.84;;;3.87
11926;BMP180;6022;48.768;18.608;2023-02-05T13:48:58;99970.03;;;4.57
11926;BMP180;6022;48.768;18.608;2023-02-05T13:54:48;99975.94;;;4.53
11926;BMP180;6022;48.768;18.608;2023-02-05T13:58:11;99977.66;;;4.51
11926;BMP180;6022;48.768;18.608;2023-02-05T14:01:11;99978.88;;;4.27
11926;BMP180;6022;48.768;18.608;2023-02-05T14:04:06;99975.66;;;4.17
11926;BMP180;6022;48.768;18.608;2023-02-05T14:07:03;99975.75;;;4.10
11926;BMP180;6022;48.768;18.608;2023-02-05T14:09:53;99975.09;;;3.26
11926;BMP180;6022;48.768;18.608;2023-02-05T14:12:29;99966.53;;;3.42
11926;BMP180;6022;48.768;18.608;2023-02-05T14:17:54;99963.13;;;3.47
11926;BMP180;6022;48.768;18.608;2023-02-05T14:26:52;99975.28;;;3.05
11926;BMP180;6022;48.768;18.608;2023-02-05T14:35:00;99969.19;;;2.36
11926;BMP180;6022;48.768;18.608;2023-02-05T14:38:15;99957.47;;;2.38
11926;BMP180;6022;48.768;18.608;2023-02-05T14:41:24;99967.66;;;2.12
11926;BMP180;6022;48.768;18.608;2023-02-05T14:44:43;99970.28;;;1.91
11926;BMP180;6022;48.768;18.608;2023-02-05T14:47:32;99980.31;;;1.82
11926;BMP180;6022;48.768;18.608;2023-02-05T14:50:29;99986.16;;;1.81
11926;BMP180;6022;48.768;18.608;2023-02-05T14:53:05;99979.53;;;1.73
11926;BMP180;6022;48.768;18.608;2023-02-05T14:56:04;99992.81;;;1.85
11926;BMP180;6022;48.768;18.608;2023-02-05T14:58:45;99990.41;;;1.61
11926;BMP180;6022;48.768;18.608;2023-02-05T15:01:44;99986.28;;;1.47
11926;BMP180;6022;48.768;18.608;2023-02-05T15:04:47;99968.84;;;1.28
11926;BMP180;6022;48.768;18.608;2023-02-05T15:07:30;99972.97;;;1.35
11926;BMP180;6022;48.768;18.608;2023-02-05T15:10:25;99971.38;;;1.07
11926;BMP180;6022;48.768;18.608;2023-02-05T15:13:33;99979.72;;;0.94
11926;BMP180;6022;48.768;18.608;2023-02-05T15:18:49;99983.91;;;0.91
11926;BMP180;6022;48.768;18.608;2023-02-05T15:21:29;99988.88;;;0.82
11926;BMP180;6022;48.768;18.608;2023-02-05T15:24:21;99985.56;;;0.71
11926;BMP180;6022;48.768;18.608;2023-02-05T15:27:03;99992.22;;;0.81
11926;BMP180;6022;48.768;18.608;2023-02-05T15:29:50;99990.53;;;0.50
11926;BMP180;6022;48.768;18.608;2023-02-05T15:32:50;99998.03;;;0.58
11926;BMP180;6022;48.768;18.608;2023-02-05T15:35:33;99990.56;;;0.49
11926;BMP180;6022;48.768;18.608;2023-02-05T15:38:30;99993.88;;;0.38
11926;BMP180;6022;48.768;18.608;2023-02-05T15:41:06;100004.63;;;0.20
11926;BMP180;6022;48.768;18.608;2023-02-05T15:43:37;100007.97;;;0.19
11926;BMP180;6022;48.768;18.608;2023-02-05T15:46:15;100010.44;;;0.10
11926;BMP180;6022;48.768;18.608;2023-02-05T15:48:44;100011.28;;;0.09
11926;BMP180;6022;48.768;18.608;2023-02-05T15:51:40;100015.28;;;-0.28
11926;BMP180;6022;48.768;18.608;2023-02-05T15:54:07;100017.63;;;-0.55
11926;BMP180;6022;48.768;18.608;2023-02-05T15:56:39;100012.75;;;-0.37
11926;BMP180;6022;48.768;18.608;2023-02-05T15:59:18;100024.25;;;-0.63
11926;BMP180;6022;48.768;18.608;2023-02-05T16:01:58;100025.13;;;-0.58
11926;BMP180;6022;48.768;18.608;2023-02-05T16:04:38;100016.88;;;-0.38
11926;BMP180;6022;48.768;18.608;2023-02-05T16:07:19;100031.06;;;-0.29
11926;BMP180;6022;48.768;18.608;2023-02-05T16:09:52;100033.38;;;-0.65
11926;BMP180;6022;48.768;18.608;2023-02-05T16:12:26;100033.47;;;-0.50
11926;BMP180;6022;48.768;18.608;2023-02-05T16:15:06;100029.34;;;-0.46
11926;BMP180;6022;48.768;18.608;2023-02-05T16:17:47;100036.00;;;-0.41
11926;BMP180;6022;48.768;18.608;2023-02-05T16:23:10;100045.09;;;-0.46
11926;BMP180;6022;48.768;18.608;2023-02-05T16:26:26;100058.91;;;-0.92
11926;BMP180;6022;48.768;18.608;2023-02-05T16:28:57;100054.81;;;-0.86
11926;BMP180;6022;48.768;18.608;2023-02-05T16:31:26;100067.22;;;-0.93
11926;BMP180;6022;48.768;18.608;2023-02-05T16:34:00;100065.56;;;-0.91
11926;BMP180;6022;48.768;18.608;2023-02-05T16:36:38;100071.41;;;-0.88
11926;BMP180;6022;48.768;18.608;2023-02-05T16:39:22;100067.25;;;-0.84
11926;BMP180;6022;48.768;18.608;2023-02-05T16:42:16;100074.53;;;-1.14
11926;BMP180;6022;48.768;18.608;2023-02-05T16:45:25;100082.03;;;-1.08
11926;BMP180;6022;48.768;18.608;2023-02-05T16:48:24;100088.47;;;-1.29
11926;BMP180;6022;48.768;18.608;2023-02-05T16:50:53;100076.91;;;-1.23
11926;BMP180;6022;48.768;18.608;2023-02-05T16:53:26;100082.78;;;-1.15
11926;BMP180;6022;48.768;18.608;2023-02-05T16:56:22;100083.69;;;-1.10
11926;BMP180;6022;48.768;18.608;2023-02-05T16:58:57;100094.38;;;-1.21
11926;BMP180;6022;48.768;18.608;2023-02-05T17:01:36;100103.50;;;-1.19
11926;BMP180;6022;48.768;18.608;2023-02-05T17:04:06;100115.94;;;-1.20
11926;BMP180;6022;48.768;18.608;2023-02-05T17:06:36;100110.09;;;-1.24
11926;BMP180;6022;48.768;18.608;2023-02-05T17:09:06;100107.59;;;-1.24
11926;BMP180;6022;48.768;18.608;2023-02-05T17:11:40;100122.44;;;-1.36
11926;BMP180;6022;48.768;18.608;2023-02-05T17:14:28;100126.44;;;-1.47
11926;BMP180;6022;48.768;18.608;2023-02-05T17:17:02;100114.84;;;-1.46
11926;BMP180;6022;48.768;18.608;2023-02-05T17:19:42;100114.75;;;-1.53
11926;BMP180;6022;48.768;18.608;2023-02-05T17:24:48;100118.19;;;-1.46
11926;BMP180;6022;48.768;18.608;2023-02-05T17:27:36;100114.72;;;-1.58
11926;BMP180;6022;48.768;18.608;2023-02-05T17:30:13;100109.53;;;-1.77
11926;BMP180;6022;48.768;18.608;2023-02-05T17:32:46;100121.00;;;-1.88
11926;BMP180;6022;48.768;18.608;2023-02-05T17:35:19;100127.34;;;-2.08
11926;BMP180;6022;48.768;18.608;2023-02-05T17:37:48;100134.97;;;-1.97
11926;BMP180;6022;48.768;18.608;2023-02-05T17:40:19;100134.06;;;-2.04
11926;BMP180;6022;48.768;18.608;2023-02-05T17:42:48;100132.31;;;-2.11
11926;BMP180;6022;48.768;18.608;2023-02-05T17:45:29;100130.63;;;-2.13
11926;BMP180;6022;48.768;18.608;2023-02-05T17:48:01;100128.88;;;-2.19
11926;BMP180;6022;48.768;18.608;2023-02-05T17:50:29;100134.66;;;-2.20
11926;BMP180;6022;48.768;18.608;2023-02-05T17:53:02;100128.69;;;-2.30
11926;BMP180;6022;48.768;18.608;2023-02-05T17:55:30;100143.50;;;-2.39